createdAt,value
2022-09-06T00:00:29.366Z,97977.77
2022-09-06T00:02:57.920Z,97980.83
2022-09-06T00:05:27.598Z,97981.02
2022-09-06T00:07:55.670Z,97984.70
2022-09-06T00:10:23.640Z,97986.92
2022-09-06T00:12:51.624Z,97987.11
2022-09-06T00:15:19.689Z,97987.83
2022-09-06T00:17:48.227Z,97981.55
2022-09-06T00:20:16.466Z,97980.27
2022-09-06T00:22:44.403Z,97983.77
2022-09-06T00:25:12.481Z,97978.56
2022-09-06T00:27:40.526Z,97980.88
2022-09-06T00:30:09.312Z,97978.73
2022-09-06T00:32:37.265Z,97978.05
2022-09-06T00:35:06.377Z,97977.86
2022-09-06T00:37:34.365Z,97970.73
2022-09-06T00:40:02.516Z,97971.27
2022-09-06T00:42:30.829Z,97967.84
2022-09-06T00:44:59.207Z,97967.56
2022-09-06T00:47:29.125Z,97967.73
2022-09-06T00:49:59.243Z,97966.78
2022-09-06T00:52:27.929Z,97965.67
2022-09-06T00:54:56.452Z,97965.76
2022-09-06T00:57:32.017Z,97965.72
2022-09-06T01:00:00.483Z,97963.45
2022-09-06T01:02:28.462Z,97960.85
2022-09-06T01:04:58.880Z,97957.01
2022-09-06T01:07:29.728Z,97954.14
2022-09-06T01:10:16.208Z,97955.64
2022-09-06T01:13:02.787Z,97957.65
2022-09-06T01:15:49.374Z,97963.96
2022-09-06T01:18:36.003Z,97967.34
2022-09-06T01:21:07.145Z,97967.45
2022-09-06T01:23:52.815Z,97966.41
2022-09-06T01:26:40.977Z,97970.20
2022-09-06T01:29:22.056Z,97970.23
2022-09-06T01:31:53.937Z,97967.42
2022-09-06T01:34:24.893Z,97965.79
2022-09-06T01:37:13.942Z,97966.55
2022-09-06T01:39:42.030Z,97968.31
2022-09-06T01:42:09.985Z,97969.31
2022-09-06T01:44:41.096Z,97970.55
2022-09-06T01:47:18.052Z,97972.13
2022-09-06T01:49:48.669Z,97970.64
2022-09-06T01:52:20.940Z,97971.65
2022-09-06T01:55:07.263Z,97973.33
2022-09-06T01:57:37.865Z,97970.65
2022-09-06T02:00:09.335Z,97973.40
2022-09-06T02:02:53.809Z,97972.77
2022-09-06T02:05:28.962Z,97974.33
2022-09-06T02:07:59.640Z,97977.12
2022-09-06T02:10:30.231Z,97981.91
2022-09-06T02:13:01.004Z,97983.77
2022-09-06T02:15:31.512Z,97982.61
2022-09-06T02:18:06.008Z,97981.08
2022-09-06T02:20:36.948Z,97978.77
2022-09-06T02:23:06.816Z,97978.30
2022-09-06T02:25:38.817Z,97975.66
2022-09-06T02:28:07.678Z,97976.16
2022-09-06T02:30:38.684Z,97978.11
2022-09-06T02:33:11.889Z,97979.19
2022-09-06T02:35:47.288Z,97977.67
2022-09-06T02:38:16.000Z,97976.29
2022-09-06T02:40:44.684Z,97975.48
2022-09-06T02:43:12.585Z,97977.17
2022-09-06T02:45:40.767Z,97975.59
2022-09-06T02:48:08.611Z,97975.60
2022-09-06T02:50:37.138Z,97981.45
2022-09-06T02:53:06.000Z,97985.36
2022-09-06T02:55:34.024Z,97986.23
2022-09-06T02:58:02.235Z,97984.45
2022-09-06T03:00:30.507Z,97984.38
2022-09-06T03:02:58.708Z,97986.44
2022-09-06T03:05:27.747Z,97987.38
2022-09-06T03:07:55.920Z,97986.18
2022-09-06T03:10:25.064Z,97981.38
2022-09-06T03:12:53.422Z,97981.52
2022-09-06T03:15:21.814Z,97981.76
2022-09-06T03:17:49.769Z,97981.68
2022-09-06T03:20:17.955Z,97979.95
2022-09-06T03:22:45.814Z,97983.25
2022-09-06T03:25:14.177Z,97984.45
2022-09-06T03:27:43.624Z,97985.00
2022-09-06T03:30:12.083Z,97990.77
2022-09-06T03:32:39.988Z,97992.29
2022-09-06T03:35:09.387Z,97993.14
2022-09-06T03:37:37.331Z,97994.21
2022-09-06T03:40:06.408Z,97993.83
2022-09-06T03:42:34.403Z,97994.20
2022-09-06T03:45:02.497Z,97990.41
2022-09-06T03:47:30.361Z,97990.41
2022-09-06T03:49:58.348Z,97989.55
2022-09-06T03:52:26.164Z,97987.04
2022-09-06T03:54:53.995Z,97986.25
2022-09-06T03:57:22.158Z,97984.98
2022-09-06T03:59:50.046Z,97983.76
2022-09-06T04:02:18.155Z,97984.16
2022-09-06T04:04:46.404Z,97991.12
2022-09-06T04:07:14.467Z,97996.88
2022-09-06T04:09:42.462Z,98005.39
2022-09-06T04:12:10.498Z,98011.88
2022-09-06T04:14:38.571Z,98013.67
2022-09-06T04:17:07.257Z,98013.34
2022-09-06T04:19:35.250Z,98013.88
2022-09-06T04:22:03.451Z,98016.20
2022-09-06T04:24:31.678Z,98012.52
2022-09-06T04:26:59.955Z,98006.61
2022-09-06T04:29:28.299Z,98004.52
2022-09-06T04:31:56.185Z,98005.84
2022-09-06T04:34:24.360Z,98006.79
2022-09-06T04:36:52.684Z,98009.23
2022-09-06T04:39:20.622Z,98010.58
2022-09-06T04:41:48.735Z,98011.38
2022-09-06T04:44:16.675Z,98008.67
2022-09-06T04:46:44.838Z,98013.86
2022-09-06T04:49:12.917Z,98012.30
2022-09-06T04:51:41.290Z,98014.48
2022-09-06T04:54:09.518Z,98010.27
2022-09-06T04:56:37.535Z,98013.80
2022-09-06T04:59:05.613Z,98012.69
2022-09-06T05:01:33.803Z,98007.23
2022-09-06T05:04:01.910Z,98005.02
2022-09-06T05:06:29.824Z,98004.67
2022-09-06T05:08:57.697Z,98009.05
2022-09-06T05:11:25.637Z,98009.54
2022-09-06T05:13:53.731Z,98013.14
2022-09-06T05:16:21.684Z,98011.38
2022-09-06T05:18:49.829Z,98010.09
2022-09-06T05:21:18.185Z,98008.27
2022-09-06T05:23:46.726Z,98004.36
2022-09-06T05:26:14.749Z,98000.83
2022-09-06T05:28:42.924Z,98002.27
2022-09-06T05:31:23.937Z,98001.92
2022-09-06T05:33:53.670Z,98001.48
2022-09-06T05:36:23.538Z,98002.40
2022-09-06T05:38:52.110Z,97998.02
2022-09-06T05:41:20.651Z,97998.13
2022-09-06T05:43:48.864Z,97998.50
2022-09-06T05:46:17.125Z,97996.89
2022-09-06T05:48:51.625Z,97996.66
2022-09-06T05:51:20.105Z,97994.22
2022-09-06T05:53:48.448Z,97994.52
2022-09-06T05:56:16.928Z,97995.06
2022-09-06T05:58:45.242Z,97995.59
2022-09-06T06:01:16.333Z,97994.86
2022-09-06T06:03:50.833Z,97990.14
2022-09-06T06:06:19.801Z,97991.86
2022-09-06T06:08:50.251Z,97990.14
2022-09-06T06:11:18.598Z,97990.86
2022-09-06T06:13:47.398Z,97988.06
2022-09-06T06:16:16.785Z,97985.13
2022-09-06T06:18:48.784Z,97983.15
2022-09-06T06:21:26.154Z,97983.40
2022-09-06T06:23:58.398Z,97983.06
2022-09-06T06:26:27.403Z,97983.38
2022-09-06T06:28:57.642Z,97987.06
2022-09-06T06:31:25.612Z,97987.63
2022-09-06T06:33:53.637Z,97990.21
2022-09-06T06:36:23.701Z,97988.79
2022-09-06T06:38:54.059Z,97985.86
2022-09-06T06:41:26.320Z,97988.88
2022-09-06T06:44:12.291Z,97993.56
2022-09-06T06:46:41.897Z,97999.42
2022-09-06T06:49:09.835Z,98006.02
2022-09-06T06:51:37.949Z,98008.52
2022-09-06T06:54:06.526Z,98009.23
2022-09-06T06:56:36.086Z,98011.65
2022-09-06T06:59:05.953Z,98011.76
2022-09-06T07:01:35.329Z,98011.91
2022-09-06T07:04:03.704Z,98012.56
2022-09-06T07:12:21.802Z,98010.94
2022-09-06T07:14:49.938Z,98009.47
2022-09-06T07:17:17.745Z,98003.98
2022-09-06T07:22:33.754Z,98006.10
2022-09-06T07:25:02.239Z,98008.34
2022-09-06T07:30:14.538Z,98004.97
2022-09-06T07:32:42.510Z,98003.79
2022-09-06T07:35:12.503Z,98005.06
2022-09-06T07:37:40.320Z,98007.48
2022-09-06T07:40:08.607Z,98007.52
2022-09-06T07:42:36.996Z,98002.54
2022-09-06T07:45:05.964Z,98002.23
2022-09-06T07:53:14.013Z,98003.06
2022-09-06T07:55:43.923Z,98004.91
2022-09-06T07:58:11.728Z,98005.23
2022-09-06T08:00:41.579Z,98005.12
2022-09-06T08:03:10.495Z,98005.04
2022-09-06T08:11:15.170Z,97993.58
2022-09-06T08:13:43.637Z,97992.86
2022-09-06T08:16:12.788Z,97992.54
2022-09-06T08:18:40.840Z,97993.55
2022-09-06T08:21:13.171Z,97995.10
2022-09-06T08:23:44.957Z,97990.15
2022-09-06T08:26:14.532Z,97987.27
2022-09-06T08:28:42.821Z,97984.71
2022-09-06T08:31:12.107Z,97981.04
2022-09-06T08:33:41.169Z,97979.33
2022-09-06T08:36:09.597Z,97970.39
2022-09-06T08:38:37.838Z,97972.56
2022-09-06T08:41:10.096Z,97972.20
2022-09-06T08:43:38.835Z,97964.07
2022-09-06T08:46:07.851Z,97954.08
2022-09-06T08:48:39.752Z,97948.06
2022-09-06T08:51:27.499Z,97946.96
2022-09-06T08:54:00.110Z,97947.30
2022-09-06T08:56:37.685Z,97947.08
2022-09-06T08:59:14.626Z,97943.17
2022-09-06T09:01:55.196Z,97943.52
2022-09-06T09:04:24.850Z,97942.88
2022-09-06T09:06:56.021Z,97945.48
2022-09-06T09:09:23.970Z,97943.34
2022-09-06T09:11:51.968Z,97939.79
2022-09-06T09:14:23.077Z,97938.84
2022-09-06T09:16:52.781Z,97939.22
2022-09-06T09:19:20.949Z,97934.50
2022-09-06T09:21:48.839Z,97934.05
2022-09-06T09:24:16.796Z,97930.79
2022-09-06T09:26:55.413Z,97917.86
2022-09-06T09:29:27.978Z,97919.52
2022-09-06T09:31:57.767Z,97921.48
2022-09-06T09:34:28.379Z,97917.07
2022-09-06T09:40:00.967Z,97916.36
2022-09-06T09:42:31.260Z,97914.89
2022-09-06T09:44:59.934Z,97914.65
2022-09-06T09:47:29.978Z,97911.46
2022-09-06T09:49:58.758Z,97911.49
2022-09-06T09:52:31.114Z,97908.42
2022-09-06T09:55:02.652Z,97907.45
2022-09-06T09:57:42.504Z,97904.96
2022-09-06T10:00:13.303Z,97904.09
2022-09-06T10:02:42.347Z,97904.45
2022-09-06T10:05:13.274Z,97910.77
2022-09-06T10:07:46.192Z,97906.77
2022-09-06T10:10:15.104Z,97907.10
2022-09-06T10:12:43.232Z,97912.09
2022-09-06T10:15:12.548Z,97910.41
2022-09-06T10:17:52.916Z,97905.52
2022-09-06T10:20:23.233Z,97905.52
2022-09-06T10:22:51.345Z,97901.95
2022-09-06T10:25:37.093Z,97899.91
2022-09-06T10:28:21.407Z,97902.66
2022-09-06T10:30:58.503Z,97900.08
2022-09-06T10:33:30.340Z,97897.49
2022-09-06T10:36:00.922Z,97899.22
2022-09-06T10:38:35.962Z,97899.25
2022-09-06T10:41:22.475Z,97898.26
2022-09-06T10:43:59.721Z,97901.96
2022-09-06T10:46:29.304Z,97903.10
2022-09-06T10:48:57.988Z,97901.91
2022-09-06T10:51:28.877Z,97901.73
2022-09-06T10:54:01.206Z,97905.51
2022-09-06T10:56:47.958Z,97904.85
2022-09-06T10:59:38.203Z,97902.40
2022-09-06T11:02:25.554Z,97905.45
2022-09-06T11:10:32.065Z,97897.08
2022-09-06T11:13:03.402Z,97899.31
2022-09-06T11:15:36.331Z,97895.12
2022-09-06T11:18:07.051Z,97894.57
2022-09-06T11:20:41.063Z,97892.78
2022-09-06T11:23:27.603Z,97890.89
2022-09-06T11:26:13.858Z,97892.95
2022-09-06T11:28:47.670Z,97890.77
2022-09-06T11:34:19.760Z,97887.83
2022-09-06T11:36:52.434Z,97883.63
2022-09-06T11:42:38.013Z,97877.56
2022-09-06T11:45:06.568Z,97877.52
2022-09-06T11:47:40.404Z,97879.23
2022-09-06T11:50:37.534Z,97875.12
2022-09-06T11:53:15.834Z,97874.77
2022-09-06T11:55:45.473Z,97871.23
2022-09-06T11:58:16.551Z,97866.16
2022-09-06T12:00:45.625Z,97865.40
2022-09-06T12:06:24.985Z,97853.17
2022-09-06T12:08:53.693Z,97850.50
2022-09-06T12:11:21.933Z,97847.44
2022-09-06T12:14:13.159Z,97841.22
2022-09-06T12:17:13.315Z,97837.41
2022-09-06T12:19:45.949Z,97835.84
2022-09-06T12:22:41.304Z,97830.02
2022-09-06T12:25:18.636Z,97826.96
2022-09-06T12:27:52.673Z,97827.97
2022-09-06T12:30:32.408Z,97824.43
2022-09-06T12:33:00.728Z,97816.48
2022-09-06T12:38:24.234Z,97813.04
2022-09-06T12:40:58.332Z,97810.86
2022-09-06T12:43:27.174Z,97806.98
2022-09-06T12:45:55.352Z,97808.79
2022-09-06T12:48:30.863Z,97804.81
2022-09-06T12:51:03.287Z,97805.77
2022-09-06T12:53:31.801Z,97799.92
2022-09-06T12:56:19.901Z,97797.51
2022-09-06T12:58:47.708Z,97793.05
2022-09-06T13:01:22.894Z,97792.34
2022-09-06T13:04:03.025Z,97787.73
2022-09-06T13:06:34.163Z,97786.20
2022-09-06T13:09:02.415Z,97788.60
2022-09-06T13:11:38.605Z,97786.17
2022-09-06T13:14:14.251Z,97778.42
2022-09-06T13:16:45.473Z,97772.14
2022-09-06T13:19:30.196Z,97772.42
2022-09-06T13:21:58.817Z,97772.52
2022-09-06T13:24:32.826Z,97774.86
2022-09-06T13:27:01.291Z,97773.35
2022-09-06T13:29:33.437Z,97770.27
2022-09-06T13:32:02.426Z,97769.14
2022-09-06T13:34:32.266Z,97766.53
2022-09-06T13:37:10.388Z,97759.23
2022-09-06T13:39:44.107Z,97761.19
2022-09-06T13:42:25.716Z,97760.36
2022-09-06T13:44:53.589Z,97758.60
2022-09-06T13:47:21.416Z,97758.92
2022-09-06T13:49:51.141Z,97754.80
2022-09-06T13:52:19.029Z,97754.38
2022-09-06T13:54:48.947Z,97754.27
2022-09-06T13:57:22.187Z,97748.34
2022-09-06T13:59:52.220Z,97747.27
2022-09-06T14:02:21.172Z,97744.92
2022-09-06T14:04:49.785Z,97744.61
2022-09-06T14:07:17.805Z,97739.93
2022-09-06T14:09:45.899Z,97739.39
2022-09-06T14:12:13.912Z,97738.33
2022-09-06T14:14:41.809Z,97734.14
2022-09-06T14:17:09.986Z,97731.94
2022-09-06T14:19:37.840Z,97736.08
2022-09-06T14:22:07.083Z,97732.88
2022-09-06T14:24:35.202Z,97730.02
2022-09-06T14:27:05.245Z,97731.87
2022-09-06T14:29:34.934Z,97729.83
2022-09-06T14:32:03.209Z,97732.08
2022-09-06T14:34:31.246Z,97733.70
2022-09-06T14:36:59.605Z,97729.61
2022-09-06T14:39:27.866Z,97726.68
2022-09-06T14:41:55.905Z,97723.21
2022-09-06T14:44:23.881Z,97719.49
2022-09-06T14:46:53.566Z,97720.11
2022-09-06T14:49:21.760Z,97717.77
2022-09-06T14:51:49.610Z,97720.08
2022-09-06T14:54:17.491Z,97717.69
2022-09-06T14:56:45.419Z,97715.27
2022-09-06T14:59:13.839Z,97716.11
2022-09-06T15:01:41.799Z,97715.20
2022-09-06T15:04:10.729Z,97710.16
2022-09-06T15:06:41.158Z,97710.83
2022-09-06T15:09:11.519Z,97712.15
2022-09-06T15:11:44.239Z,97708.09
2022-09-06T15:14:16.920Z,97707.04
2022-09-06T15:16:45.809Z,97708.05
2022-09-06T15:19:14.335Z,97706.16
2022-09-06T15:21:42.812Z,97700.84
2022-09-06T15:24:12.181Z,97704.11
2022-09-06T15:26:41.472Z,97702.73
2022-09-06T15:29:09.897Z,97703.79
2022-09-06T15:31:38.594Z,97701.70
2022-09-06T15:34:08.146Z,97702.48
2022-09-06T15:36:36.677Z,97696.17
2022-09-06T15:39:05.651Z,97696.41
2022-09-06T15:41:35.710Z,97695.54
2022-09-06T15:44:12.041Z,97697.58
2022-09-06T15:46:44.685Z,97694.09
2022-09-06T15:49:16.058Z,97696.90
2022-09-06T15:51:45.381Z,97692.16
2022-09-06T15:54:14.518Z,97693.48
2022-09-06T15:56:43.117Z,97690.88
2022-09-06T15:59:12.211Z,97691.81
2022-09-06T16:01:40.220Z,97691.73
2022-09-06T16:04:08.209Z,97697.30
2022-09-06T16:06:38.068Z,97694.04
2022-09-06T16:09:14.397Z,97698.08
2022-09-06T16:11:42.721Z,97696.61
2022-09-06T16:14:13.139Z,97696.25
2022-09-06T16:16:42.427Z,97698.66
2022-09-06T16:19:11.045Z,97698.39
2022-09-06T16:21:40.461Z,97697.46
2022-09-06T16:24:10.133Z,97697.73
2022-09-06T16:26:40.225Z,97700.33
2022-09-06T16:29:09.307Z,97698.85
2022-09-06T16:31:40.311Z,97695.55
2022-09-06T16:34:09.838Z,97694.98
2022-09-06T16:36:38.353Z,97693.66
2022-09-06T16:39:07.040Z,97693.91
2022-09-06T16:41:42.922Z,97695.07
2022-09-06T16:44:16.783Z,97697.16
2022-09-06T16:46:45.932Z,97702.14
2022-09-06T16:49:16.324Z,97703.52
2022-09-06T16:51:44.956Z,97700.67
2022-09-06T16:54:13.011Z,97701.37
2022-09-06T16:56:41.676Z,97701.02
2022-09-06T16:59:10.357Z,97700.40
2022-09-06T17:01:41.658Z,97705.76
2022-09-06T17:04:10.399Z,97706.35
2022-09-06T17:06:44.393Z,97706.11
2022-09-06T17:09:17.930Z,97706.00
2022-09-06T17:11:46.975Z,97710.57
2022-09-06T17:14:14.995Z,97712.25
2022-09-06T17:17:01.719Z,97711.52
2022-09-06T17:19:30.047Z,97716.86
2022-09-06T17:21:58.362Z,97719.69
2022-09-06T17:24:27.046Z,97721.38
2022-09-06T17:26:55.161Z,97722.48
2022-09-06T17:29:24.580Z,97719.33
2022-09-06T17:31:53.550Z,97721.63
2022-09-06T17:34:21.725Z,97720.13
2022-09-06T17:36:49.655Z,97725.52
2022-09-06T17:39:21.044Z,97729.11
2022-09-06T17:41:53.519Z,97728.41
2022-09-06T17:44:23.357Z,97729.88
2022-09-06T17:47:11.610Z,97727.44
2022-09-06T17:49:39.417Z,97725.94
2022-09-06T17:52:07.378Z,97729.78
2022-09-06T17:54:35.308Z,97734.52
2022-09-06T17:57:03.419Z,97734.96
2022-09-06T17:59:35.160Z,97734.89
2022-09-06T18:02:04.715Z,97739.25
2022-09-06T18:04:33.033Z,97745.41
2022-09-06T18:07:01.175Z,97739.51
2022-09-06T18:09:29.231Z,97742.99
2022-09-06T18:11:58.668Z,97743.89
2022-09-06T18:14:28.633Z,97746.63
2022-09-06T18:16:57.370Z,97748.73
2022-09-06T18:19:26.988Z,97751.22
2022-09-06T18:21:57.572Z,97750.29
2022-09-06T18:24:25.707Z,97750.83
2022-09-06T18:26:53.661Z,97757.45
2022-09-06T18:29:43.393Z,97759.20
2022-09-06T18:32:12.266Z,97764.23
2022-09-06T18:34:40.104Z,97766.48
2022-09-06T18:37:08.856Z,97770.58
2022-09-06T18:39:36.837Z,97770.01
2022-09-06T18:42:11.160Z,97772.73
2022-09-06T18:44:39.085Z,97771.54
2022-09-06T18:47:14.127Z,97770.11
2022-09-06T18:50:09.185Z,97773.14
2022-09-06T18:52:56.029Z,97772.29
2022-09-06T18:55:24.993Z,97766.61
2022-09-06T18:57:53.680Z,97771.68
2022-09-06T19:00:21.605Z,97772.29
2022-09-06T19:02:49.479Z,97776.27
2022-09-06T19:05:17.677Z,97782.39
2022-09-06T19:07:45.553Z,97782.98
2022-09-06T19:10:13.884Z,97779.01
2022-09-06T19:12:41.831Z,97776.66
2022-09-06T19:15:10.852Z,97774.59
2022-09-06T19:17:39.136Z,97773.83
2022-09-06T19:20:09.093Z,97772.69
2022-09-06T19:22:37.018Z,97768.63
2022-09-06T19:25:06.056Z,97765.08
2022-09-06T19:27:34.698Z,97763.60
2022-09-06T19:30:03.018Z,97764.83
2022-09-06T19:32:34.980Z,97762.23
2022-09-06T19:35:03.398Z,97760.22
2022-09-06T19:37:31.762Z,97759.31
2022-09-06T19:39:59.796Z,97759.80
2022-09-06T19:42:27.797Z,97761.60
2022-09-06T19:44:55.795Z,97762.23
2022-09-06T19:47:23.738Z,97762.81
2022-09-06T19:49:51.846Z,97756.52
2022-09-06T19:52:20.499Z,97756.20
2022-09-06T19:54:48.397Z,97757.45
2022-09-06T19:57:16.327Z,97758.88
2022-09-06T19:59:44.152Z,97764.07
2022-09-06T20:02:12.033Z,97767.04
2022-09-06T20:04:40.005Z,97766.52
2022-09-06T20:07:07.865Z,97766.23
2022-09-06T20:09:36.014Z,97772.44
2022-09-06T20:12:04.009Z,97767.98
2022-09-06T20:14:32.185Z,97765.06
2022-09-06T20:17:22.677Z,97759.58
2022-09-06T20:19:48.908Z,97757.21
2022-09-06T20:22:17.021Z,97759.78
2022-09-06T20:24:45.130Z,97758.77
2022-09-06T20:27:13.061Z,97757.67
2022-09-06T20:29:40.934Z,97757.91
2022-09-06T20:32:08.816Z,97761.64
2022-09-06T20:34:36.705Z,97759.44
2022-09-06T20:37:04.548Z,97760.10
2022-09-06T20:39:32.580Z,97753.90
2022-09-06T20:42:00.546Z,97749.83
2022-09-06T20:44:28.438Z,97745.91
2022-09-06T20:46:56.531Z,97744.33
2022-09-06T20:49:24.623Z,97745.34
2022-09-06T20:51:52.529Z,97744.29
2022-09-06T20:54:20.560Z,97747.70
2022-09-06T20:56:48.854Z,97746.20
2022-09-06T20:59:16.807Z,97750.50
2022-09-06T21:01:48.246Z,97752.62
2022-09-06T21:04:21.785Z,97752.25
2022-09-06T21:06:51.040Z,97754.70
2022-09-06T21:09:19.053Z,97754.29
2022-09-06T21:11:47.923Z,97758.87
2022-09-06T21:14:15.936Z,97759.93
2022-09-06T21:16:43.915Z,97760.30
2022-09-06T21:19:13.023Z,97763.44
2022-09-06T21:21:41.441Z,97766.89
2022-09-06T21:24:10.023Z,97766.23
2022-09-06T21:26:38.503Z,97766.29
2022-09-06T21:29:06.707Z,97767.23
2022-09-06T21:31:36.574Z,97765.55
2022-09-06T21:34:07.341Z,97762.80
2022-09-06T21:36:36.852Z,97763.99
2022-09-06T21:39:10.401Z,97761.27
2022-09-06T21:41:39.290Z,97754.08
2022-09-06T21:44:07.873Z,97746.39
2022-09-06T21:46:36.899Z,97742.52
2022-09-06T21:49:07.489Z,97738.59
2022-09-06T21:51:36.131Z,97735.10
2022-09-06T21:54:05.136Z,97732.61
2022-09-06T21:56:34.269Z,97727.48
2022-09-06T21:59:02.385Z,97728.48
2022-09-06T22:01:32.027Z,97731.52
2022-09-06T22:04:00.535Z,97725.71
2022-09-06T22:06:29.467Z,97723.50
2022-09-06T22:08:58.370Z,97717.89
2022-09-06T22:11:27.454Z,97721.48
2022-09-06T22:13:58.637Z,97722.94
2022-09-06T22:16:28.130Z,97717.30
2022-09-06T22:18:56.112Z,97719.07
2022-09-06T22:21:24.703Z,97721.68
2022-09-06T22:24:00.228Z,97724.86
2022-09-06T22:26:29.193Z,97724.95
2022-09-06T22:28:58.290Z,97724.77
2022-09-06T22:31:27.061Z,97719.77
2022-09-06T22:33:55.018Z,97722.24
2022-09-06T22:36:24.097Z,97724.95
2022-09-06T22:38:56.455Z,97728.08
2022-09-06T22:41:28.537Z,97723.89
2022-09-06T22:43:56.600Z,97722.32
2022-09-06T22:46:24.481Z,97718.69
2022-09-06T22:48:52.490Z,97715.92
2022-09-06T22:51:20.444Z,97715.39
2022-09-06T22:53:48.419Z,97713.36
2022-09-06T22:56:16.486Z,97708.13
2022-09-06T22:58:44.520Z,97699.30
2022-09-06T23:01:13.604Z,97694.23
2022-09-06T23:03:43.166Z,97692.84
2022-09-06T23:06:11.084Z,97697.20
2022-09-06T23:08:39.840Z,97702.67
2022-09-06T23:11:09.110Z,97703.73
2022-09-06T23:13:37.667Z,97704.25
2022-09-06T23:16:06.381Z,97698.27
2022-09-06T23:18:34.717Z,97697.84
2022-09-06T23:21:09.918Z,97697.08
2022-09-06T23:23:41.318Z,97694.31
2022-09-06T23:26:10.965Z,97691.51
2022-09-06T23:28:39.308Z,97694.63
2022-09-06T23:31:08.533Z,97699.70
2022-09-06T23:33:37.348Z,97702.38
2022-09-06T23:36:06.140Z,97699.41
2022-09-06T23:38:35.129Z,97696.98
2022-09-06T23:41:03.581Z,97697.36
2022-09-06T23:43:31.703Z,97695.41
2022-09-06T23:45:59.510Z,97695.02
2022-09-06T23:48:27.398Z,97698.02
2022-09-06T23:50:55.225Z,97697.34
2022-09-06T23:53:23.131Z,97699.29
2022-09-06T23:55:51.120Z,97705.66
2022-09-06T23:58:19.476Z,97706.83
